sensor_id;sensor_type;location;lat;lon;timestamp;temperature;humidity
8643;DHT22;4359;49.358;11.256;2023-02-28T00:00:08;-3.20;99.90
8643;DHT22;4359;49.358;11.256;2023-02-28T00:02:39;-3.20;99.90
8643;DHT22;4359;49.358;11.256;2023-02-28T00:05:06;-3.20;99.90
8643;DHT22;4359;49.358;11.256;2023-02-28T00:07:32;-3.20;99.90
8643;DHT22;4359;49.358;11.256;2023-02-28T00:09:57;-3.20;99.90
8643;DHT22;4359;49.358;11.256;2023-02-28T00:12:23;-3.20;99.90
8643;DHT22;4359;49.358;11.256;2023-02-28T00:14:49;-3.30;99.90
8643;DHT22;4359;49.358;11.256;2023-02-28T00:17:15;-3.20;99.90
8643;DHT22;4359;49.358;11.256;2023-02-28T00:19:43;-3.20;99.90
8643;DHT22;4359;49.358;11.256;2023-02-28T00:22:09;-3.30;99.90
8643;DHT22;4359;49.358;11.256;2023-02-28T00:24:34;-3.30;99.90
8643;DHT22;4359;49.358;11.256;2023-02-28T00:27:00;-3.20;99.90
8643;DHT22;4359;49.358;11.256;2023-02-28T00:29:25;-3.20;99.90
8643;DHT22;4359;49.358;11.256;2023-02-28T00:31:51;-3.10;99.90
8643;DHT22;4359;49.358;11.256;2023-02-28T00:34:16;-3.00;99.90
8643;DHT22;4359;49.358;11.256;2023-02-28T00:36:42;-3.00;99.90
8643;DHT22;4359;49.358;11.256;2023-02-28T00:39:11;-3.00;99.90
8643;DHT22;4359;49.358;11.256;2023-02-28T00:41:36;-3.10;99.90
8643;DHT22;4359;49.358;11.256;2023-02-28T00:44:02;-3.00;99.90
8643;DHT22;4359;49.358;11.256;2023-02-28T00:46:27;-2.90;99.90
8643;DHT22;4359;49.358;11.256;2023-02-28T00:48:53;-2.90;99.90
8643;DHT22;4359;49.358;11.256;2023-02-28T00:51:19;-3.10;99.90
8643;DHT22;4359;49.358;11.256;2023-02-28T00:53:44;-3.00;99.90
8643;DHT22;4359;49.358;11.256;2023-02-28T00:56:10;-3.00;99.90
8643;DHT22;4359;49.358;11.256;2023-02-28T00:58:35;-3.00;99.90
8643;DHT22;4359;49.358;11.256;2023-02-28T01:01:01;-3.10;99.90
8643;DHT22;4359;49.358;11.256;2023-02-28T01:03:27;-3.10;99.90
8643;DHT22;4359;49.358;11.256;2023-02-28T01:05:52;-3.10;99.90
8643;DHT22;4359;49.358;11.256;2023-02-28T01:08:21;-3.10;99.90
8643;DHT22;4359;49.358;11.256;2023-02-28T01:10:46;-3.10;99.90
8643;DHT22;4359;49.358;11.256;2023-02-28T01:13:13;-3.10;99.90
8643;DHT22;4359;49.358;11.256;2023-02-28T01:15:43;-3.10;99.90
8643;DHT22;4359;49.358;11.256;2023-02-28T01:18:10;-3.20;99.90
8643;DHT22;4359;49.358;11.256;2023-02-28T01:20:36;-3.20;99.90
8643;DHT22;4359;49.358;11.256;2023-02-28T01:23:02;-3.20;99.90
8643;DHT22;4359;49.358;11.256;2023-02-28T01:25:28;-3.20;99.90
8643;DHT22;4359;49.358;11.256;2023-02-28T01:27:53;-3.20;99.90
8643;DHT22;4359;49.358;11.256;2023-02-28T01:30:19;-3.20;99.90
8643;DHT22;4359;49.358;11.256;2023-02-28T01:32:44;-3.20;99.90
8643;DHT22;4359;49.358;11.256;2023-02-28T01:35:10;-3.20;99.90
8643;DHT22;4359;49.358;11.256;2023-02-28T01:37:36;-3.20;99.90
8643;DHT22;4359;49.358;11.256;2023-02-28T01:40:01;-3.30;99.90
8643;DHT22;4359;49.358;11.256;2023-02-28T01:42:27;-3.30;99.90
8643;DHT22;4359;49.358;11.256;2023-02-28T01:47:26;-3.40;99.90
8643;DHT22;4359;49.358;11.256;2023-02-28T01:49:52;-3.50;99.90
8643;DHT22;4359;49.358;11.256;2023-02-28T01:52:17;-3.40;99.90
8643;DHT22;4359;49.358;11.256;2023-02-28T01:54:54;-3.40;99.90
8643;DHT22;4359;49.358;11.256;2023-02-28T01:57:22;-3.40;99.90
8643;DHT22;4359;49.358;11.256;2023-02-28T01:59:54;-3.40;99.90
8643;DHT22;4359;49.358;11.256;2023-02-28T02:02:23;-3.40;99.90
8643;DHT22;4359;49.358;11.256;2023-02-28T02:04:58;-3.40;99.90
8643;DHT22;4359;49.358;11.256;2023-02-28T02:07:26;-3.40;99.90
8643;DHT22;4359;49.358;11.256;2023-02-28T02:10:02;-3.40;99.90
8643;DHT22;4359;49.358;11.256;2023-02-28T02:15:13;-3.50;99.90
8643;DHT22;4359;49.358;11.256;2023-02-28T02:17:54;-3.50;99.90
8643;DHT22;4359;49.358;11.256;2023-02-28T02:20:27;-3.60;99.90
8643;DHT22;4359;49.358;11.256;2023-02-28T02:25:45;-3.60;99.90
8643;DHT22;4359;49.358;11.256;2023-02-28T02:41:33;-3.40;99.90
8643;DHT22;4359;49.358;11.256;2023-02-28T02:43:40;-3.50;99.90
8643;DHT22;4359;49.358;11.256;2023-02-28T02:46:10;-3.50;99.90
8643;DHT22;4359;49.358;11.256;2023-02-28T02:48:38;-3.60;99.90
8643;DHT22;4359;49.358;11.256;2023-02-28T02:51:06;-3.50;99.90
8643;DHT22;4359;49.358;11.256;2023-02-28T02:54:37;-3.60;99.90
8643;DHT22;4359;49.358;11.256;2023-02-28T02:56:31;-3.50;99.90
8643;DHT22;4359;49.358;11.256;2023-02-28T02:58:59;-3.50;99.90
8643;DHT22;4359;49.358;11.256;2023-02-28T03:01:26;-3.50;99.90
8643;DHT22;4359;49.358;11.256;2023-02-28T03:03:58;-3.50;99.90
8643;DHT22;4359;49.358;11.256;2023-02-28T03:06:25;-3.40;99.90
8643;DHT22;4359;49.358;11.256;2023-02-28T03:08:50;-3.40;99.90
8643;DHT22;4359;49.358;11.256;2023-02-28T03:11:15;-3.50;99.90
8643;DHT22;4359;49.358;11.256;2023-02-28T03:24:25;-3.40;99.90
8643;DHT22;4359;49.358;11.256;2023-02-28T03:26:55;-3.50;99.90
8643;DHT22;4359;49.358;11.256;2023-02-28T03:29:32;-3.50;99.90
8643;DHT22;4359;49.358;11.256;2023-02-28T03:32:10;-3.50;99.90
8643;DHT22;4359;49.358;11.256;2023-02-28T03:34:41;-3.50;99.90
8643;DHT22;4359;49.358;11.256;2023-02-28T03:37:09;-3.60;99.90
8643;DHT22;4359;49.358;11.256;2023-02-28T03:39:37;-3.50;99.90
8643;DHT22;4359;49.358;11.256;2023-02-28T03:42:12;-3.60;99.90
8643;DHT22;4359;49.358;11.256;2023-02-28T03:44:41;-3.50;99.90
8643;DHT22;4359;49.358;11.256;2023-02-28T03:47:12;-3.60;99.90
8643;DHT22;4359;49.358;11.256;2023-02-28T03:49:40;-3.50;99.90
8643;DHT22;4359;49.358;11.256;2023-02-28T03:52:08;-3.60;99.90
8643;DHT22;4359;49.358;11.256;2023-02-28T03:54:39;-3.60;99.90
8643;DHT22;4359;49.358;11.256;2023-02-28T03:57:30;-3.60;99.90
8643;DHT22;4359;49.358;11.256;2023-02-28T03:59:54;-3.60;99.90
8643;DHT22;4359;49.358;11.256;2023-02-28T04:02:21;-3.70;99.90
8643;DHT22;4359;49.358;11.256;2023-02-28T04:04:47;-3.60;99.90
8643;DHT22;4359;49.358;11.256;2023-02-28T04:07:14;-3.60;99.90
8643;DHT22;4359;49.358;11.256;2023-02-28T04:09:40;-3.60;99.90
8643;DHT22;4359;49.358;11.256;2023-02-28T04:12:06;-3.60;99.90
8643;DHT22;4359;49.358;11.256;2023-02-28T04:14:31;-3.70;99.90
8643;DHT22;4359;49.358;11.256;2023-02-28T04:16:57;-3.70;99.90
8643;DHT22;4359;49.358;11.256;2023-02-28T04:19:22;-3.70;99.90
8643;DHT22;4359;49.358;11.256;2023-02-28T04:21:49;-3.70;99.90
8643;DHT22;4359;49.358;11.256;2023-02-28T04:24:16;-3.70;99.90
8643;DHT22;4359;49.358;11.256;2023-02-28T04:26:43;-3.70;99.90
8643;DHT22;4359;49.358;11.256;2023-02-28T04:29:10;-3.70;99.90
8643;DHT22;4359;49.358;11.256;2023-02-28T04:31:36;-3.70;99.90
8643;DHT22;4359;49.358;11.256;2023-02-28T04:34:02;-3.70;99.90
8643;DHT22;4359;49.358;11.256;2023-02-28T04:36:27;-3.70;99.90
8643;DHT22;4359;49.358;11.256;2023-02-28T04:38:53;-3.70;99.90
8643;DHT22;4359;49.358;11.256;2023-02-28T04:41:19;-3.80;99.90
8643;DHT22;4359;49.358;11.256;2023-02-28T04:43:45;-3.80;99.90
8643;DHT22;4359;49.358;11.256;2023-02-28T04:46:10;-3.70;99.90
8643;DHT22;4359;49.358;11.256;2023-02-28T04:48:37;-3.80;99.90
8643;DHT22;4359;49.358;11.256;2023-02-28T04:51:03;-3.80;99.90
8643;DHT22;4359;49.358;11.256;2023-02-28T04:53:29;-3.70;99.90
8643;DHT22;4359;49.358;11.256;2023-02-28T04:55:55;-3.70;99.90
8643;DHT22;4359;49.358;11.256;2023-02-28T04:58:21;-3.70;99.90
8643;DHT22;4359;49.358;11.256;2023-02-28T05:00:49;-3.80;99.90
8643;DHT22;4359;49.358;11.256;2023-02-28T05:03:14;-3.80;99.90
8643;DHT22;4359;49.358;11.256;2023-02-28T05:05:40;-3.80;99.90
8643;DHT22;4359;49.358;11.256;2023-02-28T05:08:05;-3.80;99.90
8643;DHT22;4359;49.358;11.256;2023-02-28T05:10:31;-3.90;99.90
8643;DHT22;4359;49.358;11.256;2023-02-28T05:12:57;-3.80;99.90
8643;DHT22;4359;49.358;11.256;2023-02-28T05:15:23;-3.80;99.90
8643;DHT22;4359;49.358;11.256;2023-02-28T05:17:48;-3.80;99.90
8643;DHT22;4359;49.358;11.256;2023-02-28T05:20:14;-3.70;99.90
8643;DHT22;4359;49.358;11.256;2023-02-28T05:22:40;-3.80;99.90
8643;DHT22;4359;49.358;11.256;2023-02-28T05:25:06;-3.80;99.90
8643;DHT22;4359;49.358;11.256;2023-02-28T05:27:32;-3.80;99.90
8643;DHT22;4359;49.358;11.256;2023-02-28T05:29:58;-3.70;99.90
8643;DHT22;4359;49.358;11.256;2023-02-28T05:32:24;-3.70;99.90
8643;DHT22;4359;49.358;11.256;2023-02-28T05:34:49;-3.70;99.90
8643;DHT22;4359;49.358;11.256;2023-02-28T05:37:15;-3.70;99.90
8643;DHT22;4359;49.358;11.256;2023-02-28T05:39:41;-3.60;99.90
8643;DHT22;4359;49.358;11.256;2023-02-28T05:42:07;-3.50;99.90
8643;DHT22;4359;49.358;11.256;2023-02-28T05:44:32;-3.60;99.90
8643;DHT22;4359;49.358;11.256;2023-02-28T05:46:58;-3.70;99.90
8643;DHT22;4359;49.358;11.256;2023-02-28T05:49:23;-3.70;99.90
8643;DHT22;4359;49.358;11.256;2023-02-28T05:51:49;-3.70;99.90
8643;DHT22;4359;49.358;11.256;2023-02-28T05:54:14;-3.60;99.90
8643;DHT22;4359;49.358;11.256;2023-02-28T05:56:40;-3.70;99.90
8643;DHT22;4359;49.358;11.256;2023-02-28T05:59:09;-3.70;99.90
8643;DHT22;4359;49.358;11.256;2023-02-28T06:01:39;-3.70;99.90
8643;DHT22;4359;49.358;11.256;2023-02-28T06:04:05;-3.60;99.90
8643;DHT22;4359;49.358;11.256;2023-02-28T06:06:31;-3.60;99.90
8643;DHT22;4359;49.358;11.256;2023-02-28T06:08:59;-3.60;99.90
8643;DHT22;4359;49.358;11.256;2023-02-28T06:11:26;-3.60;99.90
8643;DHT22;4359;49.358;11.256;2023-02-28T06:13:55;-3.60;99.90
8643;DHT22;4359;49.358;11.256;2023-02-28T06:16:21;-3.70;99.90
8643;DHT22;4359;49.358;11.256;2023-02-28T06:18:47;-3.50;99.90
8643;DHT22;4359;49.358;11.256;2023-02-28T06:21:13;-3.50;99.90
8643;DHT22;4359;49.358;11.256;2023-02-28T06:23:38;-3.50;99.90
8643;DHT22;4359;49.358;11.256;2023-02-28T06:26:04;-3.40;99.90
8643;DHT22;4359;49.358;11.256;2023-02-28T06:28:30;-3.30;99.90
8643;DHT22;4359;49.358;11.256;2023-02-28T06:30:55;-3.30;99.90
8643;DHT22;4359;49.358;11.256;2023-02-28T06:33:21;-3.10;99.90
8643;DHT22;4359;49.358;11.256;2023-02-28T06:35:47;-3.10;99.90
8643;DHT22;4359;49.358;11.256;2023-02-28T06:38:12;-3.00;99.90
8643;DHT22;4359;49.358;11.256;2023-02-28T06:40:38;-2.90;99.90
8643;DHT22;4359;49.358;11.256;2023-02-28T06:43:03;-2.90;99.90
8643;DHT22;4359;49.358;11.256;2023-02-28T06:45:29;-2.80;99.90
8643;DHT22;4359;49.358;11.256;2023-02-28T06:47:54;-2.70;99.90
8643;DHT22;4359;49.358;11.256;2023-02-28T06:50:20;-2.60;99.90
8643;DHT22;4359;49.358;11.256;2023-02-28T06:52:46;-2.60;99.90
8643;DHT22;4359;49.358;11.256;2023-02-28T06:55:11;-2.50;99.90
8643;DHT22;4359;49.358;11.256;2023-02-28T06:57:37;-2.40;99.90
8643;DHT22;4359;49.358;11.256;2023-02-28T07:00:04;-2.10;99.90
8643;DHT22;4359;49.358;11.256;2023-02-28T07:02:30;-1.90;99.90
8643;DHT22;4359;49.358;11.256;2023-02-28T07:04:56;-1.50;99.90
8643;DHT22;4359;49.358;11.256;2023-02-28T07:07:22;-1.20;99.90
8643;DHT22;4359;49.358;11.256;2023-02-28T07:09:47;-0.80;99.90
8643;DHT22;4359;49.358;11.256;2023-02-28T07:12:13;-0.40;99.90
8643;DHT22;4359;49.358;11.256;2023-02-28T07:14:39;-0.20;99.90
8643;DHT22;4359;49.358;11.256;2023-02-28T07:17:06;0.10;99.90
8643;DHT22;4359;49.358;11.256;2023-02-28T07:19:31;0.20;99.90
8643;DHT22;4359;49.358;11.256;2023-02-28T07:21:57;0.30;99.90
8643;DHT22;4359;49.358;11.256;2023-02-28T07:24:22;0.30;99.90
8643;DHT22;4359;49.358;11.256;2023-02-28T07:26:51;0.40;99.90
8643;DHT22;4359;49.358;11.256;2023-02-28T07:29:16;0.60;99.90
8643;DHT22;4359;49.358;11.256;2023-02-28T07:31:42;0.50;99.90
8643;DHT22;4359;49.358;11.256;2023-02-28T07:34:07;0.50;99.90
8643;DHT22;4359;49.358;11.256;2023-02-28T07:36:33;0.40;99.90
8643;DHT22;4359;49.358;11.256;2023-02-28T07:38:59;0.40;99.90
8643;DHT22;4359;49.358;11.256;2023-02-28T07:41:25;0.70;99.90
8643;DHT22;4359;49.358;11.256;2023-02-28T07:43:53;0.60;99.90
8643;DHT22;4359;49.358;11.256;2023-02-28T07:46:19;0.70;99.90
8643;DHT22;4359;49.358;11.256;2023-02-28T07:48:46;0.60;99.90
8643;DHT22;4359;49.358;11.256;2023-02-28T07:51:12;0.90;99.90
8643;DHT22;4359;49.358;11.256;2023-02-28T07:53:37;0.90;99.90
8643;DHT22;4359;49.358;11.256;2023-02-28T07:56:03;0.80;99.90
8643;DHT22;4359;49.358;11.256;2023-02-28T07:58:29;1.00;99.90
8643;DHT22;4359;49.358;11.256;2023-02-28T08:00:56;0.80;99.90
8643;DHT22;4359;49.358;11.256;2023-02-28T08:03:22;1.00;99.90
8643;DHT22;4359;49.358;11.256;2023-02-28T08:05:48;1.00;99.90
8643;DHT22;4359;49.358;11.256;2023-02-28T08:08:17;1.10;99.90
8643;DHT22;4359;49.358;11.256;2023-02-28T08:10:42;1.20;99.90
8643;DHT22;4359;49.358;11.256;2023-02-28T08:13:08;1.30;99.90
8643;DHT22;4359;49.358;11.256;2023-02-28T08:15:34;1.60;99.90
8643;DHT22;4359;49.358;11.256;2023-02-28T08:17:59;1.60;99.90
8643;DHT22;4359;49.358;11.256;2023-02-28T08:20:25;1.60;99.90
8643;DHT22;4359;49.358;11.256;2023-02-28T08:22:51;1.70;99.90
8643;DHT22;4359;49.358;11.256;2023-02-28T08:25:16;1.40;99.90
8643;DHT22;4359;49.358;11.256;2023-02-28T08:27:42;1.30;99.90
8643;DHT22;4359;49.358;11.256;2023-02-28T08:30:09;1.20;99.90
8643;DHT22;4359;49.358;11.256;2023-02-28T08:32:35;1.20;99.90
8643;DHT22;4359;49.358;11.256;2023-02-28T08:35:01;1.30;99.90
8643;DHT22;4359;49.358;11.256;2023-02-28T08:37:28;1.40;99.90
8643;DHT22;4359;49.358;11.256;2023-02-28T08:39:53;1.20;99.90
8643;DHT22;4359;49.358;11.256;2023-02-28T08:42:19;1.20;99.90
8643;DHT22;4359;49.358;11.256;2023-02-28T08:44:45;1.30;99.90
8643;DHT22;4359;49.358;11.256;2023-02-28T08:47:10;1.70;99.90
8643;DHT22;4359;49.358;11.256;2023-02-28T08:49:36;2.10;99.90
8643;DHT22;4359;49.358;11.256;2023-02-28T08:52:03;2.10;99.90
8643;DHT22;4359;49.358;11.256;2023-02-28T08:54:28;2.20;99.90
8643;DHT22;4359;49.358;11.256;2023-02-28T08:56:56;2.10;99.90
8643;DHT22;4359;49.358;11.256;2023-02-28T08:59:22;2.20;99.90
8643;DHT22;4359;49.358;11.256;2023-02-28T09:01:48;2.60;99.90
8643;DHT22;4359;49.358;11.256;2023-02-28T09:04:13;2.40;99.90
8643;DHT22;4359;49.358;11.256;2023-02-28T09:06:39;2.20;99.90
8643;DHT22;4359;49.358;11.256;2023-02-28T09:09:04;1.90;99.90
8643;DHT22;4359;49.358;11.256;2023-02-28T09:11:31;2.20;99.90
8643;DHT22;4359;49.358;11.256;2023-02-28T09:13:57;2.20;99.90
8643;DHT22;4359;49.358;11.256;2023-02-28T09:16:24;2.20;99.90
8643;DHT22;4359;49.358;11.256;2023-02-28T09:18:49;2.20;99.90
8643;DHT22;4359;49.358;11.256;2023-02-28T09:21:16;2.50;99.90
8643;DHT22;4359;49.358;11.256;2023-02-28T09:23:42;2.70;99.90
8643;DHT22;4359;49.358;11.256;2023-02-28T09:26:11;2.70;99.90
8643;DHT22;4359;49.358;11.256;2023-02-28T09:28:38;2.50;99.90
8643;DHT22;4359;49.358;11.256;2023-02-28T09:31:03;2.60;99.90
8643;DHT22;4359;49.358;11.256;2023-02-28T09:33:30;2.50;99.90
8643;DHT22;4359;49.358;11.256;2023-02-28T09:35:59;2.70;99.90
8643;DHT22;4359;49.358;11.256;2023-02-28T09:38:25;2.90;99.90
8643;DHT22;4359;49.358;11.256;2023-02-28T09:40:54;2.60;99.90
8643;DHT22;4359;49.358;11.256;2023-02-28T09:43:21;2.60;99.90
8643;DHT22;4359;49.358;11.256;2023-02-28T09:45:48;2.60;99.90
8643;DHT22;4359;49.358;11.256;2023-02-28T09:48:16;2.80;99.90
8643;DHT22;4359;49.358;11.256;2023-02-28T09:50:48;2.80;99.90
8643;DHT22;4359;49.358;11.256;2023-02-28T09:53:18;2.90;99.90
8643;DHT22;4359;49.358;11.256;2023-02-28T09:55:45;2.90;99.90
8643;DHT22;4359;49.358;11.256;2023-02-28T09:58:20;2.90;99.90
8643;DHT22;4359;49.358;11.256;2023-02-28T10:00:51;2.80;99.90
8643;DHT22;4359;49.358;11.256;2023-02-28T10:03:27;2.80;99.90
8643;DHT22;4359;49.358;11.256;2023-02-28T10:08:21;2.40;99.90
8643;DHT22;4359;49.358;11.256;2023-02-28T10:11:12;2.40;99.90
8643;DHT22;4359;49.358;11.256;2023-02-28T10:13:39;2.30;99.90
8643;DHT22;4359;49.358;11.256;2023-02-28T10:18:52;2.10;99.90
8643;DHT22;4359;49.358;11.256;2023-02-28T10:21:31;2.00;99.90
8643;DHT22;4359;49.358;11.256;2023-02-28T10:24:42;2.20;99.90
8643;DHT22;4359;49.358;11.256;2023-02-28T10:26:43;2.30;99.90
8643;DHT22;4359;49.358;11.256;2023-02-28T10:29:10;2.70;99.90
8643;DHT22;4359;49.358;11.256;2023-02-28T10:31:36;2.90;99.90
8643;DHT22;4359;49.358;11.256;2023-02-28T10:34:01;2.90;99.90
8643;DHT22;4359;49.358;11.256;2023-02-28T10:36:28;2.90;99.90
8643;DHT22;4359;49.358;11.256;2023-02-28T10:38:54;3.00;99.90
8643;DHT22;4359;49.358;11.256;2023-02-28T10:41:27;3.10;99.90
8643;DHT22;4359;49.358;11.256;2023-02-28T10:43:53;3.20;99.90
8643;DHT22;4359;49.358;11.256;2023-02-28T10:46:37;3.30;99.90
8643;DHT22;4359;49.358;11.256;2023-02-28T10:49:05;3.20;99.90
8643;DHT22;4359;49.358;11.256;2023-02-28T10:51:36;3.20;99.90
8643;DHT22;4359;49.358;11.256;2023-02-28T10:54:02;3.00;99.90
8643;DHT22;4359;49.358;11.256;2023-02-28T10:56:28;3.00;99.90
8643;DHT22;4359;49.358;11.256;2023-02-28T11:01:39;2.70;99.90
8643;DHT22;4359;49.358;11.256;2023-02-28T11:06:43;2.80;99.90
8643;DHT22;4359;49.358;11.256;2023-02-28T11:09:22;3.00;99.90
8643;DHT22;4359;49.358;11.256;2023-02-28T11:11:48;2.90;99.90
8643;DHT22;4359;49.358;11.256;2023-02-28T11:14:19;2.70;99.90
8643;DHT22;4359;49.358;11.256;2023-02-28T11:16:46;2.80;99.90
8643;DHT22;4359;49.358;11.256;2023-02-28T11:19:46;3.00;99.90
8643;DHT22;4359;49.358;11.256;2023-02-28T11:22:04;3.20;99.90
8643;DHT22;4359;49.358;11.256;2023-02-28T11:24:34;3.00;99.90
8643;DHT22;4359;49.358;11.256;2023-02-28T11:27:01;3.00;99.90
8643;DHT22;4359;49.358;11.256;2023-02-28T11:29:30;3.20;99.90
8643;DHT22;4359;49.358;11.256;2023-02-28T11:34:31;3.90;99.90
8643;DHT22;4359;49.358;11.256;2023-02-28T11:36:57;4.00;99.90
8643;DHT22;4359;49.358;11.256;2023-02-28T11:39:23;4.10;99.90
8643;DHT22;4359;49.358;11.256;2023-02-28T11:46:47;4.40;99.90
8643;DHT22;4359;49.358;11.256;2023-02-28T11:52:42;4.60;99.90
8643;DHT22;4359;49.358;11.256;2023-02-28T12:05:24;5.10;99.90
8643;DHT22;4359;49.358;11.256;2023-02-28T12:10:21;5.30;99.90
8643;DHT22;4359;49.358;11.256;2023-02-28T12:12:50;5.40;99.90
8643;DHT22;4359;49.358;11.256;2023-02-28T12:26:19;6.60;99.90
8643;DHT22;4359;49.358;11.256;2023-02-28T12:28:52;6.70;99.90
8643;DHT22;4359;49.358;11.256;2023-02-28T12:31:26;6.50;99.90
8643;DHT22;4359;49.358;11.256;2023-02-28T12:33:56;6.20;99.90
8643;DHT22;4359;49.358;11.256;2023-02-28T12:36:24;5.90;99.90
8643;DHT22;4359;49.358;11.256;2023-02-28T12:39:02;5.60;99.90
8643;DHT22;4359;49.358;11.256;2023-02-28T12:43:57;5.20;99.90
8643;DHT22;4359;49.358;11.256;2023-02-28T12:46:24;5.40;99.90
8643;DHT22;4359;49.358;11.256;2023-02-28T12:48:52;5.50;99.90
8643;DHT22;4359;49.358;11.256;2023-02-28T12:51:18;5.80;99.90
8643;DHT22;4359;49.358;11.256;2023-02-28T12:59:11;6.20;99.90
8643;DHT22;4359;49.358;11.256;2023-02-28T13:01:46;6.00;99.90
8643;DHT22;4359;49.358;11.256;2023-02-28T13:06:57;6.20;99.90
8643;DHT22;4359;49.358;11.256;2023-02-28T13:09:25;6.10;99.90
8643;DHT22;4359;49.358;11.256;2023-02-28T13:11:51;5.80;99.90
8643;DHT22;4359;49.358;11.256;2023-02-28T13:19:24;5.70;99.90
8643;DHT22;4359;49.358;11.256;2023-02-28T13:21:51;5.60;99.90
8643;DHT22;4359;49.358;11.256;2023-02-28T13:24:36;5.80;99.90
8643;DHT22;4359;49.358;11.256;2023-02-28T13:29:31;6.00;99.90
8643;DHT22;4359;49.358;11.256;2023-02-28T13:34:34;6.30;99.90
8643;DHT22;4359;49.358;11.256;2023-02-28T13:42:35;6.30;99.90
8643;DHT22;4359;49.358;11.256;2023-02-28T13:50:14;6.00;99.90
8643;DHT22;4359;49.358;11.256;2023-02-28T13:58:01;6.20;99.90
8643;DHT22;4359;49.358;11.256;2023-02-28T14:00:51;6.20;99.90
8643;DHT22;4359;49.358;11.256;2023-02-28T14:11:28;6.10;99.90
8643;DHT22;4359;49.358;11.256;2023-02-28T14:13:54;6.00;99.90
8643;DHT22;4359;49.358;11.256;2023-02-28T14:16:23;6.00;99.90
8643;DHT22;4359;49.358;11.256;2023-02-28T14:18:50;5.80;99.90
8643;DHT22;4359;49.358;11.256;2023-02-28T14:21:23;5.60;99.90
8643;DHT22;4359;49.358;11.256;2023-02-28T14:24:19;5.70;99.90
8643;DHT22;4359;49.358;11.256;2023-02-28T14:29:30;5.60;99.90
8643;DHT22;4359;49.358;11.256;2023-02-28T14:32:06;5.30;99.90
8643;DHT22;4359;49.358;11.256;2023-02-28T14:34:37;5.10;99.90
8643;DHT22;4359;49.358;11.256;2023-02-28T14:37:04;5.30;99.90
8643;DHT22;4359;49.358;11.256;2023-02-28T14:39:31;4.90;99.90
8643;DHT22;4359;49.358;11.256;2023-02-28T14:41:57;4.60;99.90
8643;DHT22;4359;49.358;11.256;2023-02-28T14:44:30;4.60;99.90
8643;DHT22;4359;49.358;11.256;2023-02-28T14:46:56;4.40;99.90
8643;DHT22;4359;49.358;11.256;2023-02-28T14:51:50;4.40;99.90
8643;DHT22;4359;49.358;11.256;2023-02-28T14:54:26;4.30;99.90
8643;DHT22;4359;49.358;11.256;2023-02-28T14:56:52;4.20;99.90
8643;DHT22;4359;49.358;11.256;2023-02-28T14:59:25;4.10;99.90
8643;DHT22;4359;49.358;11.256;2023-02-28T15:01:51;4.10;99.90
8643;DHT22;4359;49.358;11.256;2023-02-28T15:04:22;4.00;99.90
8643;DHT22;4359;49.358;11.256;2023-02-28T15:09:34;3.90;99.90
8643;DHT22;4359;49.358;11.256;2023-02-28T15:12:00;3.80;99.90
8643;DHT22;4359;49.358;11.256;2023-02-28T15:14:26;3.90;99.90
8643;DHT22;4359;49.358;11.256;2023-02-28T15:16:57;3.90;99.90
8643;DHT22;4359;49.358;11.256;2023-02-28T15:19:31;3.80;99.90
8643;DHT22;4359;49.358;11.256;2023-02-28T15:22:08;3.80;99.90
8643;DHT22;4359;49.358;11.256;2023-02-28T15:24:37;3.80;99.90
8643;DHT22;4359;49.358;11.256;2023-02-28T15:27:15;3.80;99.90
8643;DHT22;4359;49.358;11.256;2023-02-28T15:29:42;3.70;99.90
8643;DHT22;4359;49.358;11.256;2023-02-28T15:32:27;3.60;99.90
8643;DHT22;4359;49.358;11.256;2023-02-28T15:34:54;3.70;99.90
8643;DHT22;4359;49.358;11.256;2023-02-28T15:39:51;3.70;99.90
8643;DHT22;4359;49.358;11.256;2023-02-28T15:42:19;3.70;99.90
8643;DHT22;4359;49.358;11.256;2023-02-28T15:44:45;3.70;99.90
8643;DHT22;4359;49.358;11.256;2023-02-28T15:47:21;3.70;99.90
8643;DHT22;4359;49.358;11.256;2023-02-28T15:49:54;3.60;99.90
8643;DHT22;4359;49.358;11.256;2023-02-28T15:52:28;3.50;99.90
8643;DHT22;4359;49.358;11.256;2023-02-28T15:54:57;3.40;99.90
8643;DHT22;4359;49.358;11.256;2023-02-28T15:57:27;3.30;99.90
8643;DHT22;4359;49.358;11.256;2023-02-28T15:59:55;3.30;99.90
8643;DHT22;4359;49.358;11.256;2023-02-28T16:02:31;3.20;99.90
8643;DHT22;4359;49.358;11.256;2023-02-28T16:05:13;3.20;99.90
8643;DHT22;4359;49.358;11.256;2023-02-28T16:07:43;3.10;99.90
8643;DHT22;4359;49.358;11.256;2023-02-28T16:10:10;3.00;99.90
8643;DHT22;4359;49.358;11.256;2023-02-28T16:12:37;3.00;99.90
8643;DHT22;4359;49.358;11.256;2023-02-28T16:15:06;2.90;99.90
8643;DHT22;4359;49.358;11.256;2023-02-28T16:17:36;2.80;99.90
8643;DHT22;4359;49.358;11.256;2023-02-28T16:20:05;2.70;99.90
8643;DHT22;4359;49.358;11.256;2023-02-28T16:22:31;2.60;99.90
8643;DHT22;4359;49.358;11.256;2023-02-28T16:24:57;2.60;99.90
8643;DHT22;4359;49.358;11.256;2023-02-28T16:27:30;2.60;99.90
8643;DHT22;4359;49.358;11.256;2023-02-28T16:29:56;2.50;99.90
8643;DHT22;4359;49.358;11.256;2023-02-28T16:32:22;2.40;99.90
8643;DHT22;4359;49.358;11.256;2023-02-28T16:34:47;2.30;99.90
8643;DHT22;4359;49.358;11.256;2023-02-28T16:37:14;2.20;99.90
8643;DHT22;4359;49.358;11.256;2023-02-28T16:39:41;2.20;99.90
8643;DHT22;4359;49.358;11.256;2023-02-28T16:42:09;2.10;99.90
8643;DHT22;4359;49.358;11.256;2023-02-28T16:44:35;1.90;99.90
8643;DHT22;4359;49.358;11.256;2023-02-28T16:47:02;1.80;99.90
8643;DHT22;4359;49.358;11.256;2023-02-28T16:49:28;1.80;99.90
8643;DHT22;4359;49.358;11.256;2023-02-28T16:51:53;1.70;99.90
8643;DHT22;4359;49.358;11.256;2023-02-28T16:54:19;1.60;99.90
8643;DHT22;4359;49.358;11.256;2023-02-28T16:56:45;1.50;99.90
8643;DHT22;4359;49.358;11.256;2023-02-28T16:59:11;1.30;99.90
8643;DHT22;4359;49.358;11.256;2023-02-28T17:01:37;1.30;99.90
8643;DHT22;4359;49.358;11.256;2023-02-28T17:04:03;1.20;99.90
8643;DHT22;4359;49.358;11.256;2023-02-28T17:06:28;1.10;99.90
8643;DHT22;4359;49.358;11.256;2023-02-28T17:08:54;1.20;99.90
8643;DHT22;4359;49.358;11.256;2023-02-28T17:11:20;1.00;99.90
8643;DHT22;4359;49.358;11.256;2023-02-28T17:13:46;0.80;99.90
8643;DHT22;4359;49.358;11.256;2023-02-28T17:16:32;0.70;99.90
8643;DHT22;4359;49.358;11.256;2023-02-28T17:18:59;0.50;99.90
8643;DHT22;4359;49.358;11.256;2023-02-28T17:21:25;0.40;99.90
8643;DHT22;4359;49.358;11.256;2023-02-28T17:23:50;0.50;99.90
8643;DHT22;4359;49.358;11.256;2023-02-28T17:26:16;0.40;99.90
8643;DHT22;4359;49.358;11.256;2023-02-28T17:28:54;0.40;99.90
8643;DHT22;4359;49.358;11.256;2023-02-28T17:31:21;0.30;99.90
8643;DHT22;4359;49.358;11.256;2023-02-28T17:33:47;0.20;99.90
8643;DHT22;4359;49.358;11.256;2023-02-28T17:36:14;0.10;99.90
8643;DHT22;4359;49.358;11.256;2023-02-28T17:38:40;0.00;99.90
8643;DHT22;4359;49.358;11.256;2023-02-28T17:41:06;-0.20;99.90
8643;DHT22;4359;49.358;11.256;2023-02-28T17:43:31;-0.30;99.90
8643;DHT22;4359;49.358;11.256;2023-02-28T17:45:57;-0.40;99.90
8643;DHT22;4359;49.358;11.256;2023-02-28T17:48:23;-0.50;99.90
8643;DHT22;4359;49.358;11.256;2023-02-28T17:50:49;-0.60;99.90
8643;DHT22;4359;49.358;11.256;2023-02-28T17:53:14;-0.70;99.90
8643;DHT22;4359;49.358;11.256;2023-02-28T17:55:40;-0.70;99.90
8643;DHT22;4359;49.358;11.256;2023-02-28T17:58:06;-0.80;99.90
8643;DHT22;4359;49.358;11.256;2023-02-28T18:00:31;-0.80;99.90
8643;DHT22;4359;49.358;11.256;2023-02-28T18:02:59;-0.90;99.90
8643;DHT22;4359;49.358;11.256;2023-02-28T18:05:25;-1.10;99.90
8643;DHT22;4359;49.358;11.256;2023-02-28T18:07:51;-1.30;99.90
8643;DHT22;4359;49.358;11.256;2023-02-28T18:10:18;-1.40;99.90